This is the latest recevied weather packets stored in our database for station/object F4IXV-10. If no packets are shown the sender has not sent any weather packets the latest 10 day(s).
| Time | Temp. | Humidity | Pressure | Rain* | Wind** | Luminosity | Snow |
|---|---|---|---|---|---|---|---|
| 1777816806 | 26.11° C | 28% | 985 hPa | - | - | - | - |
| 1777816201 | 26.11° C | 28% | 985 hPa | - | - | - | - |
| 1777815596 | 26.11° C | 28% | 985 hPa | - | - | - | - |
| 1777814991 | 25.56° C | 28% | 985 hPa | - | - | - | - |
| 1777814386 | 25.56° C | 28% | 985 hPa | - | - | - | - |
| 1777813781 | 25.56° C | 28% | 986 hPa | - | - | - | - |
| 1777813176 | 25.56° C | 28% | 986 hPa | - | - | - | - |
| 1777812571 | 25.56° C | 28% | 986 hPa | - | - | - | - |
| 1777811966 | 25.56° C | 28% | 986 hPa | - | - | - | - |
| 1777811361 | 25.56° C | 28% | 986 hPa | - | - | - | - |
| 1777810756 | 25.56° C | 27% | 986 hPa | - | - | - | - |
| 1777810151 | 25° C | 28% | 986 hPa | - | - | - | - |
| 1777809546 | 25° C | 28% | 986 hPa | - | - | - | - |
| 1777808941 | 25° C | 28% | 986 hPa | - | - | - | - |
| 1777808336 | 24.44° C | 28% | 986 hPa | - | - | - | - |
| 1777807731 | 25° C | 28% | 986 hPa | - | - | - | - |
| 1777807126 | 26.11° C | 26% | 986 hPa | - | - | - | - |
| 1777806521 | 25.56° C | 26% | 986 hPa | - | - | - | - |
| 1777805916 | 33.33° C | 19% | 986 hPa | - | - | - | - |
| 1777805311 | 24.44° C | 28% | 986 hPa | - | - | - | - |
| 1777804706 | 23.89° C | 29% | 986 hPa | - | - | - | - |
| 1777804101 | 24.44° C | 28% | 987 hPa | - | - | - | - |
| 1777803496 | 25.56° C | 26% | 987 hPa | - | - | - | - |
| 1777802891 | 22.22° C | 31% | 987 hPa | - | - | - | - |
| 1777802286 | 22.22° C | 31% | 987 hPa | - | - | - | - |
* Rain since midnight (hover to see other rain measurements)
** Current wind speed in m/s (hover to see current wind gust speed)